createdAt,value
2023-04-12T00:02:01.939Z,99294.20
2023-04-12T00:04:30.491Z,99293.23
2023-04-12T00:07:01.183Z,99292.69
2023-04-12T00:09:30.605Z,99293.08
2023-04-12T00:11:59.920Z,99289.69
2023-04-12T00:14:28.390Z,99291.97
2023-04-12T00:16:56.666Z,99290.61
2023-04-12T00:19:27.922Z,99290.06
2023-04-12T00:21:56.910Z,99287.61
2023-04-12T00:24:26.311Z,99287.28
2023-04-12T00:26:55.208Z,99291.52
2023-04-12T00:29:23.397Z,99291.67
2023-04-12T00:31:52.070Z,99295.38
2023-04-12T00:34:20.753Z,99294.06
2023-04-12T00:36:49.029Z,99290.90
2023-04-12T00:39:17.213Z,99289.54
2023-04-12T00:41:45.788Z,99285.77
2023-04-12T00:44:14.676Z,99283.77
2023-04-12T00:46:43.497Z,99285.13
2023-04-12T00:49:12.919Z,99285.95
2023-04-12T00:51:42.095Z,99279.91
2023-04-12T00:54:15.155Z,99280.61
2023-04-12T00:56:45.006Z,99281.64
2023-04-12T00:59:13.766Z,99286.23
2023-04-12T01:01:42.391Z,99282.59
2023-04-12T01:04:14.188Z,99276.48
2023-04-12T01:07:10.330Z,99275.23
2023-04-12T01:10:08.609Z,99269.14
2023-04-12T01:12:50.402Z,99268.11
2023-04-12T01:15:19.505Z,99264.67
2023-04-12T01:18:15.012Z,99265.11
2023-04-12T01:21:08.164Z,99264.63
2023-04-12T01:23:40.240Z,99260.31
2023-04-12T01:26:11.669Z,99261.88
2023-04-12T01:28:43.972Z,99252.73
2023-04-12T01:31:14.308Z,99254.63
2023-04-12T01:33:45.512Z,99254.73
2023-04-12T01:36:17.168Z,99253.76
2023-04-12T01:38:46.884Z,99245.73
2023-04-12T01:41:16.094Z,99245.63
2023-04-12T01:43:47.551Z,99245.63
2023-04-12T01:46:19.355Z,99243.12
2023-04-12T01:48:53.087Z,99241.05
2023-04-12T01:51:33.687Z,99237.84
2023-04-12T01:54:22.656Z,99233.88
2023-04-12T01:56:57.963Z,99235.94
2023-04-12T01:59:34.924Z,99235.73
2023-04-12T02:02:05.020Z,99240.36
2023-04-12T02:04:35.958Z,99242.70
2023-04-12T02:07:04.818Z,99246.20
2023-04-12T02:09:39.781Z,99242.67
2023-04-12T02:12:09.209Z,99238.64
2023-04-12T02:14:37.748Z,99238.42
2023-04-12T02:17:06.111Z,99236.79
2023-04-12T02:19:34.488Z,99238.43
2023-04-12T02:22:04.631Z,99237.55
2023-04-12T02:24:34.004Z,99227.97
2023-04-12T02:27:02.482Z,99223.02
2023-04-12T02:29:31.490Z,99228.62
2023-04-12T02:31:59.865Z,99226.71
2023-04-12T02:34:34.303Z,99225.79
2023-04-12T02:37:13.795Z,99222.30
2023-04-12T02:39:42.222Z,99220.71
2023-04-12T02:42:11.100Z,99225.02
2023-04-12T02:44:40.668Z,99227.35
2023-04-12T02:47:15.022Z,99229.20
2023-04-12T02:49:46.518Z,99228.65
2023-04-12T02:52:17.009Z,99228.77
2023-04-12T02:55:06.174Z,99226.91
2023-04-12T02:57:34.856Z,99227.89
2023-04-12T03:00:12.486Z,99221.68
2023-04-12T03:02:45.146Z,99218.25
2023-04-12T03:05:19.968Z,99216.17
2023-04-12T03:07:49.285Z,99211.73
2023-04-12T03:10:20.610Z,99205.24
2023-04-12T03:12:54.242Z,99205.52
2023-04-12T03:15:24.838Z,99211.73
2023-04-12T03:17:54.186Z,99216.58
2023-04-12T03:20:25.389Z,99217.77
2023-04-12T03:23:01.791Z,99218.37
2023-04-12T03:25:31.466Z,99219.30
2023-04-12T03:28:07.459Z,99222.73
2023-04-12T03:30:47.290Z,99219.95
2023-04-12T03:33:18.108Z,99214.06
2023-04-12T03:35:47.048Z,99210.86
2023-04-12T03:38:16.000Z,99210.04
2023-04-12T03:40:44.580Z,99209.88
2023-04-12T03:43:13.163Z,99215.59
2023-04-12T03:45:41.434Z,99225.61
2023-04-12T03:48:12.095Z,99228.83
2023-04-12T03:50:48.642Z,99232.96
2023-04-12T03:53:22.137Z,99235.85
2023-04-12T03:55:52.052Z,99241.18
2023-04-12T03:58:21.048Z,99243.41
2023-04-12T04:00:49.858Z,99241.14
2023-04-12T04:03:18.907Z,99240.20
2023-04-12T04:05:59.922Z,99239.94
2023-04-12T04:08:29.939Z,99238.14
2023-04-12T04:10:59.469Z,99242.39
2023-04-12T04:13:32.420Z,99241.90
2023-04-12T04:16:06.546Z,99241.96
2023-04-12T04:18:36.204Z,99244.58
2023-04-12T04:21:07.663Z,99246.43
2023-04-12T04:23:40.170Z,99246.98
2023-04-12T04:26:12.611Z,99249.82
2023-04-12T04:28:50.516Z,99249.39
2023-04-12T04:31:22.501Z,99249.61
2023-04-12T04:33:51.608Z,99254.30
2023-04-12T04:36:22.953Z,99251.30
2023-04-12T04:38:54.918Z,99258.22
2023-04-12T04:41:41.563Z,99258.33
2023-04-12T04:44:25.986Z,99259.75
2023-04-12T04:46:58.151Z,99265.02
2023-04-12T04:49:26.432Z,99264.55
2023-04-12T04:51:56.545Z,99267.59
2023-04-12T04:54:28.920Z,99273.86
2023-04-12T04:56:57.510Z,99271.08
2023-04-12T04:59:26.394Z,99271.46
2023-04-12T05:01:57.645Z,99269.39
2023-04-12T05:04:26.150Z,99271.03
2023-04-12T05:06:55.120Z,99270.75
2023-04-12T05:09:25.747Z,99270.86
2023-04-12T05:11:57.408Z,99271.41
2023-04-12T05:14:41.340Z,99274.63
2023-04-12T05:17:13.612Z,99277.73
2023-04-12T05:19:47.460Z,99279.25
2023-04-12T05:22:20.460Z,99279.30
2023-04-12T05:24:49.825Z,99277.50
2023-04-12T05:27:19.317Z,99276.13
2023-04-12T05:29:48.546Z,99281.80
2023-04-12T05:32:18.666Z,99286.04
2023-04-12T05:34:48.241Z,99287.12
2023-04-12T05:37:17.029Z,99286.08
2023-04-12T05:39:45.207Z,99283.45
2023-04-12T05:42:14.426Z,99285.45
2023-04-12T05:44:46.107Z,99288.45
2023-04-12T05:47:15.775Z,99290.19
2023-04-12T05:49:44.265Z,99288.92
2023-04-12T05:52:13.354Z,99289.30
2023-04-12T05:54:42.139Z,99282.53
2023-04-12T05:57:14.104Z,99286.73
2023-04-12T05:59:43.819Z,99286.40
2023-04-12T06:02:12.603Z,99281.55
2023-04-12T06:04:50.325Z,99283.11
2023-04-12T06:07:21.481Z,99283.47
2023-04-12T06:09:50.159Z,99282.96
2023-04-12T06:12:19.538Z,99280.94
2023-04-12T06:14:48.228Z,99278.52
2023-04-12T06:17:16.504Z,99276.88
2023-04-12T06:19:45.294Z,99270.35
2023-04-12T06:22:13.771Z,99273.51
2023-04-12T06:24:42.564Z,99267.69
2023-04-12T06:27:12.285Z,99268.88
2023-04-12T06:29:41.216Z,99269.30
2023-04-12T06:32:09.846Z,99277.31
2023-04-12T06:34:38.020Z,99274.77
2023-04-12T06:37:13.051Z,99279.70
2023-04-12T06:39:41.316Z,99276.38
2023-04-12T06:42:09.503Z,99278.81
2023-04-12T06:44:41.064Z,99283.19
2023-04-12T06:47:09.716Z,99277.00
2023-04-12T06:49:39.145Z,99271.39
2023-04-12T06:52:07.518Z,99271.95
2023-04-12T06:54:39.868Z,99267.67
2023-04-12T06:57:11.752Z,99272.98
2023-04-12T06:59:40.280Z,99273.77
2023-04-12T07:02:08.937Z,99275.09
2023-04-12T07:04:37.614Z,99283.15
2023-04-12T07:07:06.709Z,99281.38
2023-04-12T07:09:34.876Z,99281.86
2023-04-12T07:12:03.302Z,99282.82
2023-04-12T07:14:31.762Z,99281.46
2023-04-12T07:17:00.015Z,99278.23
2023-04-12T07:19:29.935Z,99279.52
2023-04-12T07:21:58.520Z,99283.42
2023-04-12T07:24:26.795Z,99285.05
2023-04-12T07:26:55.480Z,99286.48
2023-04-12T07:29:23.656Z,99287.83
2023-04-12T07:31:52.136Z,99292.70
2023-04-12T07:34:20.349Z,99288.79
2023-04-12T07:36:48.587Z,99290.61
2023-04-12T07:39:18.069Z,99292.53
2023-04-12T07:41:46.796Z,99294.77
2023-04-12T07:44:14.954Z,99292.45
2023-04-12T07:46:43.338Z,99292.95
2023-04-12T07:49:11.916Z,99289.84
2023-04-12T07:51:40.711Z,99288.29
2023-04-12T07:54:08.878Z,99288.29
2023-04-12T07:56:37.156Z,99289.58
2023-04-12T07:59:06.253Z,99287.05
2023-04-12T08:01:34.739Z,99289.05
2023-04-12T08:04:03.345Z,99286.19
2023-04-12T08:06:34.488Z,99285.52
2023-04-12T08:09:02.848Z,99283.01
2023-04-12T08:11:31.225Z,99280.02
2023-04-12T08:13:59.694Z,99276.91
2023-04-12T08:16:28.746Z,99278.02
2023-04-12T08:18:58.407Z,99280.48
2023-04-12T08:21:27.808Z,99282.01
2023-04-12T08:23:57.141Z,99277.84
2023-04-12T08:26:26.835Z,99281.52
2023-04-12T08:28:55.096Z,99280.62
2023-04-12T08:31:23.924Z,99284.81
2023-04-12T08:33:52.168Z,99286.02
2023-04-12T08:36:21.050Z,99290.38
2023-04-12T08:38:52.711Z,99288.25
2023-04-12T08:41:21.703Z,99288.77
2023-04-12T08:43:51.496Z,99287.30
2023-04-12T08:46:20.081Z,99290.58
2023-04-12T08:48:50.769Z,99290.77
2023-04-12T08:51:24.213Z,99296.77
2023-04-12T08:53:54.361Z,99296.58
2023-04-12T08:56:23.694Z,99297.45
2023-04-12T08:58:53.156Z,99300.16
2023-04-12T09:01:22.030Z,99299.42
2023-04-12T09:03:50.788Z,99301.48
2023-04-12T09:06:19.628Z,99302.33
2023-04-12T09:08:55.786Z,99305.17
2023-04-12T09:11:28.900Z,99302.63
2023-04-12T09:13:58.944Z,99301.02
2023-04-12T09:16:35.066Z,99303.92
2023-04-12T09:19:03.846Z,99307.45
2023-04-12T09:21:37.031Z,99307.84
2023-04-12T09:24:11.801Z,99309.29
2023-04-12T09:26:42.483Z,99307.25
2023-04-12T09:29:27.400Z,99310.89
2023-04-12T09:32:06.195Z,99312.39
2023-04-12T09:34:36.818Z,99311.33
2023-04-12T09:37:16.549Z,99310.69
2023-04-12T09:39:44.742Z,99307.31
2023-04-12T09:42:29.748Z,99306.59
2023-04-12T09:45:03.112Z,99303.40
2023-04-12T09:47:39.710Z,99312.13
2023-04-12T09:50:10.000Z,99317.31
2023-04-12T09:52:39.360Z,99313.79
2023-04-12T09:55:11.569Z,99317.89
2023-04-12T09:57:44.877Z,99321.14
2023-04-12T10:00:18.096Z,99315.48
2023-04-12T10:02:51.477Z,99320.81
2023-04-12T10:05:23.684Z,99312.42
2023-04-12T10:07:53.241Z,99308.27
2023-04-12T10:10:21.917Z,99311.40
2023-04-12T10:12:50.967Z,99317.11
2023-04-12T10:15:21.374Z,99314.20
2023-04-12T10:17:57.690Z,99314.59
2023-04-12T10:20:28.520Z,99311.14
2023-04-12T10:23:01.624Z,99312.27
2023-04-12T10:25:32.046Z,99316.52
2023-04-12T10:28:23.176Z,99316.38
2023-04-12T10:30:54.864Z,99319.33
2023-04-12T10:33:27.881Z,99320.70
2023-04-12T10:36:08.831Z,99324.23
2023-04-12T10:39:10.332Z,99320.54
2023-04-12T10:41:38.406Z,99323.37
2023-04-12T10:44:28.922Z,99323.84
2023-04-12T10:46:57.164Z,99321.51
2023-04-12T10:49:27.561Z,99323.66
2023-04-12T10:52:16.192Z,99324.84
2023-04-12T10:54:44.596Z,99324.56
2023-04-12T10:57:47.366Z,99324.17
2023-04-12T11:00:16.653Z,99327.75
2023-04-12T11:03:09.862Z,99325.09
2023-04-12T11:06:09.128Z,99323.08
2023-04-12T11:09:21.941Z,99323.21
2023-04-12T11:11:50.663Z,99327.77
2023-04-12T11:14:27.593Z,99323.98
2023-04-12T11:17:17.039Z,99323.95
2023-04-12T11:19:51.036Z,99325.92
2023-04-12T11:22:21.688Z,99324.91
2023-04-12T11:24:52.450Z,99326.24
2023-04-12T11:27:23.490Z,99331.83
2023-04-12T11:29:57.949Z,99330.60
2023-04-12T11:32:28.916Z,99329.23
2023-04-12T11:34:58.368Z,99330.77
2023-04-12T11:37:31.444Z,99328.56
2023-04-12T11:40:00.874Z,99327.14
2023-04-12T11:42:29.680Z,99321.14
2023-04-12T11:45:02.409Z,99321.34
2023-04-12T11:47:34.680Z,99320.70
2023-04-12T11:50:03.165Z,99322.25
2023-04-12T11:52:33.692Z,99327.65
2023-04-12T11:55:11.339Z,99331.40
2023-04-12T11:57:39.788Z,99333.52
2023-04-12T12:00:08.664Z,99331.29
2023-04-12T12:02:55.914Z,99328.99
2023-04-12T12:05:37.450Z,99334.29
2023-04-12T12:08:08.004Z,99333.55
2023-04-12T12:10:49.226Z,99337.52
2023-04-12T12:13:24.126Z,99339.00
2023-04-12T12:15:53.378Z,99336.64
2023-04-12T12:18:27.560Z,99339.02
2023-04-12T12:20:56.011Z,99341.55
2023-04-12T12:23:33.800Z,99340.41
2023-04-12T12:26:18.441Z,99342.03
2023-04-12T12:28:55.781Z,99343.72
2023-04-12T12:31:28.118Z,99347.54
2023-04-12T12:34:04.294Z,99346.44
2023-04-12T12:36:38.822Z,99345.48
2023-04-12T12:39:12.920Z,99343.55
2023-04-12T12:41:41.691Z,99345.14
2023-04-12T12:44:12.451Z,99345.21
2023-04-12T12:46:53.211Z,99349.15
2023-04-12T12:49:22.258Z,99349.23
2023-04-12T12:51:50.872Z,99351.23
2023-04-12T12:54:36.075Z,99349.41
2023-04-12T12:57:07.520Z,99351.31
2023-04-12T12:59:35.817Z,99352.86
2023-04-12T13:02:04.228Z,99347.91
2023-04-12T13:04:33.050Z,99342.42
2023-04-12T13:07:01.260Z,99343.56
2023-04-12T13:09:31.668Z,99341.73
2023-04-12T13:11:59.845Z,99341.98
2023-04-12T13:14:27.918Z,99345.31
2023-04-12T13:16:56.900Z,99341.09
2023-04-12T13:19:25.418Z,99347.59
2023-04-12T13:21:53.666Z,99349.13
2023-04-12T13:24:24.304Z,99347.53
2023-04-12T13:26:52.886Z,99348.77
2023-04-12T13:29:21.262Z,99351.50
2023-04-12T13:31:49.683Z,99358.35
2023-04-12T13:34:18.434Z,99357.16
2023-04-12T13:36:46.708Z,99359.08
2023-04-12T13:39:15.192Z,99362.77
2023-04-12T13:41:43.648Z,99359.27
2023-04-12T13:44:11.745Z,99364.71
2023-04-12T13:46:40.024Z,99370.93
2023-04-12T13:49:08.528Z,99376.06
2023-04-12T13:51:37.211Z,99378.71
2023-04-12T13:54:05.677Z,99379.29
2023-04-12T13:56:34.052Z,99376.75
2023-04-12T13:59:03.882Z,99374.89
2023-04-12T14:01:32.058Z,99382.05
2023-04-12T14:04:00.221Z,99384.08
2023-04-12T14:06:29.620Z,99388.30
2023-04-12T14:08:58.331Z,99390.13
2023-04-12T14:11:26.989Z,99392.84
2023-04-12T14:13:55.469Z,99396.80
2023-04-12T14:16:23.847Z,99399.66
2023-04-12T14:18:52.636Z,99398.46
2023-04-12T14:21:22.962Z,99396.80
2023-04-12T14:23:51.653Z,99394.73
2023-04-12T14:26:19.821Z,99396.69
2023-04-12T14:28:50.219Z,99400.30
2023-04-12T14:31:18.933Z,99397.94
2023-04-12T14:33:47.626Z,99396.87
2023-04-12T14:36:16.103Z,99395.83
2023-04-12T14:38:45.297Z,99401.37
2023-04-12T14:41:14.195Z,99406.59
2023-04-12T14:43:43.094Z,99409.71
2023-04-12T14:46:12.058Z,99412.50
2023-04-12T14:48:41.685Z,99411.16
2023-04-12T14:51:09.974Z,99405.02
2023-04-12T14:53:38.234Z,99408.66
2023-04-12T14:56:17.151Z,99412.30
2023-04-12T14:58:45.367Z,99410.50
2023-04-12T15:01:14.331Z,99413.83
2023-04-12T15:03:44.349Z,99414.84
2023-04-12T15:06:13.750Z,99418.61
2023-04-12T15:08:42.130Z,99419.05
2023-04-12T15:11:11.899Z,99421.25
2023-04-12T15:13:41.771Z,99425.48
2023-04-12T15:16:12.527Z,99426.26
2023-04-12T15:18:41.979Z,99424.23
2023-04-12T15:21:10.958Z,99428.34
2023-04-12T15:23:41.913Z,99427.90
2023-04-12T15:26:10.735Z,99432.01
2023-04-12T15:28:39.104Z,99432.70
2023-04-12T15:31:08.747Z,99435.64
2023-04-12T15:33:38.026Z,99436.84
2023-04-12T15:36:07.118Z,99438.59
2023-04-12T15:38:42.612Z,99436.84
2023-04-12T15:41:11.436Z,99441.38
2023-04-12T15:43:42.132Z,99443.79
2023-04-12T15:46:13.924Z,99449.59
2023-04-12T15:48:42.313Z,99452.99
2023-04-12T15:51:10.697Z,99455.46
2023-04-12T15:53:40.811Z,99456.95
2023-04-12T15:56:10.010Z,99454.45
2023-04-12T15:58:38.695Z,99458.05
2023-04-12T16:01:07.388Z,99457.15
2023-04-12T16:03:37.187Z,99462.05
2023-04-12T16:06:06.289Z,99464.51
2023-04-12T16:08:34.367Z,99465.52
2023-04-12T16:11:03.472Z,99464.45
2023-04-12T16:13:31.950Z,99462.10
2023-04-12T16:16:00.761Z,99473.04
2023-04-12T16:18:31.274Z,99479.35
2023-04-12T16:21:00.232Z,99479.53
2023-04-12T16:23:31.399Z,99483.89
2023-04-12T16:26:00.331Z,99485.87
2023-04-12T16:28:29.898Z,99489.04
2023-04-12T16:30:59.170Z,99487.35
2023-04-12T16:33:28.289Z,99487.25
2023-04-12T16:35:57.080Z,99485.45
2023-04-12T16:38:27.816Z,99486.41
2023-04-12T16:40:57.220Z,99490.45
2023-04-12T16:43:28.106Z,99486.00
2023-04-12T16:45:57.048Z,99484.17
2023-04-12T16:48:27.474Z,99487.54
2023-04-12T16:50:55.960Z,99492.29
2023-04-12T16:53:24.886Z,99492.58
2023-04-12T16:55:56.729Z,99492.06
2023-04-12T16:58:26.651Z,99499.22
2023-04-12T17:00:56.232Z,99503.41
2023-04-12T17:03:27.885Z,99499.67
2023-04-12T17:05:56.475Z,99497.48
2023-04-12T17:08:24.959Z,99499.83
2023-04-12T17:10:54.569Z,99503.95
2023-04-12T17:13:22.955Z,99511.73
2023-04-12T17:15:51.305Z,99510.42
2023-04-12T17:18:20.962Z,99510.58
2023-04-12T17:20:49.095Z,99510.30
2023-04-12T17:23:19.118Z,99510.56
2023-04-12T17:25:47.598Z,99521.95
2023-04-12T17:28:17.220Z,99525.42
2023-04-12T17:30:46.771Z,99529.02
2023-04-12T17:33:18.257Z,99528.75
2023-04-12T17:35:46.744Z,99531.78
2023-04-12T17:38:14.997Z,99536.44
2023-04-12T17:40:43.400Z,99536.48
2023-04-12T17:43:11.779Z,99541.03
2023-04-12T17:45:40.201Z,99543.48
2023-04-12T17:48:10.995Z,99546.15
2023-04-12T17:50:39.269Z,99545.70
2023-04-12T17:53:08.161Z,99551.06
2023-04-12T17:55:36.553Z,99553.15
2023-04-12T17:58:04.925Z,99560.12
2023-04-12T18:00:35.147Z,99561.46
2023-04-12T18:03:04.154Z,99564.33
2023-04-12T18:05:35.593Z,99564.89
2023-04-12T18:08:03.970Z,99564.85
2023-04-12T18:10:32.353Z,99564.00
2023-04-12T18:13:01.071Z,99567.34
2023-04-12T18:15:32.923Z,99569.23
2023-04-12T18:18:03.902Z,99569.05
2023-04-12T18:20:32.338Z,99566.94
2023-04-12T18:23:00.804Z,99570.04
2023-04-12T18:25:31.022Z,99573.02
2023-04-12T18:27:59.836Z,99576.05
2023-04-12T18:30:30.562Z,99581.59
2023-04-12T18:33:00.953Z,99578.05
2023-04-12T18:35:31.705Z,99574.17
2023-04-12T18:38:00.187Z,99568.39
2023-04-12T18:40:31.133Z,99567.39
2023-04-12T18:42:59.913Z,99567.11
2023-04-12T18:45:31.365Z,99569.66
2023-04-12T18:48:00.716Z,99564.45
2023-04-12T18:50:29.466Z,99565.42
2023-04-12T18:52:58.141Z,99561.91
2023-04-12T18:55:26.426Z,99562.98
2023-04-12T18:57:54.798Z,99562.65
2023-04-12T19:00:23.436Z,99569.55
2023-04-12T19:02:51.892Z,99574.30
2023-04-12T19:05:21.849Z,99580.83
2023-04-12T19:07:51.182Z,99580.52
2023-04-12T19:10:24.397Z,99581.75
2023-04-12T19:12:52.869Z,99590.90
2023-04-12T19:15:21.952Z,99593.23
2023-04-12T19:17:51.189Z,99591.08
2023-04-12T19:20:19.628Z,99588.10
2023-04-12T19:22:47.912Z,99590.96
2023-04-12T19:25:19.510Z,99593.20
2023-04-12T19:27:48.302Z,99594.11
2023-04-12T19:30:17.341Z,99593.16
2023-04-12T19:32:45.758Z,99596.95
2023-04-12T19:35:14.610Z,99595.73
2023-04-12T19:37:42.890Z,99598.71
2023-04-12T19:40:12.764Z,99593.98
2023-04-12T19:42:42.258Z,99594.57
2023-04-12T19:45:10.756Z,99595.22
2023-04-12T19:47:45.132Z,99597.40
2023-04-12T19:50:17.934Z,99600.67
2023-04-12T19:52:48.116Z,99605.85
2023-04-12T19:55:17.018Z,99604.20
2023-04-12T19:57:46.307Z,99607.46
2023-04-12T20:00:23.348Z,99609.14
2023-04-12T20:02:54.352Z,99602.92
2023-04-12T20:05:25.386Z,99607.73
2023-04-12T20:07:56.211Z,99611.63
2023-04-12T20:10:24.910Z,99612.26
2023-04-12T20:12:53.509Z,99616.98
2023-04-12T20:15:22.484Z,99617.50
2023-04-12T20:17:52.217Z,99617.07
2023-04-12T20:20:20.989Z,99614.95
2023-04-12T20:22:52.941Z,99614.08
2023-04-12T20:25:21.438Z,99618.83
2023-04-12T20:27:52.516Z,99617.61
2023-04-12T20:30:21.452Z,99614.95
2023-04-12T20:32:55.027Z,99618.32
2023-04-12T20:35:23.572Z,99616.63
2023-04-12T20:37:52.222Z,99613.65
2023-04-12T20:40:23.393Z,99612.92
2023-04-12T20:42:52.355Z,99618.70
2023-04-12T20:45:21.972Z,99615.11
2023-04-12T20:47:51.191Z,99617.81
2023-04-12T20:50:23.186Z,99617.19
2023-04-12T20:52:52.428Z,99616.71
2023-04-12T20:55:22.855Z,99620.70
2023-04-12T20:57:50.925Z,99619.80
2023-04-12T21:00:23.892Z,99621.30
2023-04-12T21:02:52.544Z,99622.45
2023-04-12T21:05:21.082Z,99628.21
2023-04-12T21:07:49.255Z,99629.92
2023-04-12T21:10:18.258Z,99636.02
2023-04-12T21:12:47.346Z,99642.65
2023-04-12T21:15:21.911Z,99648.90
2023-04-12T21:17:52.465Z,99654.20
2023-04-12T21:20:21.930Z,99655.29
2023-04-12T21:22:52.024Z,99661.94
2023-04-12T21:25:21.426Z,99662.48
2023-04-12T21:27:50.011Z,99669.98
2023-04-12T21:30:18.313Z,99667.70
2023-04-12T21:32:47.339Z,99671.60
2023-04-12T21:35:16.584Z,99668.30
2023-04-12T21:37:44.872Z,99665.20
2023-04-12T21:40:13.860Z,99665.48
2023-04-12T21:42:42.278Z,99667.48
2023-04-12T21:45:13.746Z,99666.11
2023-04-12T21:47:42.707Z,99667.50
2023-04-12T21:50:11.829Z,99665.89
2023-04-12T21:52:41.309Z,99667.98
2023-04-12T21:55:09.760Z,99670.70
2023-04-12T21:57:37.939Z,99670.81
2023-04-12T22:00:10.235Z,99673.29
2023-04-12T22:02:41.768Z,99671.60
2023-04-12T22:05:10.493Z,99671.92
2023-04-12T22:07:41.617Z,99673.73
2023-04-12T22:10:12.241Z,99675.88
2023-04-12T22:12:40.936Z,99677.13
2023-04-12T22:15:12.059Z,99674.77
2023-04-12T22:17:41.394Z,99671.20
2023-04-12T22:20:10.661Z,99675.35
2023-04-12T22:22:40.165Z,99668.23
2023-04-12T22:25:15.196Z,99671.44
2023-04-12T22:27:46.675Z,99667.19
2023-04-12T22:30:16.099Z,99671.52
2023-04-12T22:32:44.885Z,99673.45
2023-04-12T22:35:13.332Z,99665.84
2023-04-12T22:37:43.654Z,99667.73
2023-04-12T22:40:13.896Z,99664.42
2023-04-12T22:42:48.702Z,99663.51
2023-04-12T22:45:17.715Z,99661.36
2023-04-12T22:47:46.439Z,99660.51
2023-04-12T22:50:15.265Z,99661.09
2023-04-12T22:52:43.744Z,99661.75
2023-04-12T22:55:13.165Z,99661.84
2023-04-12T22:57:42.140Z,99662.92
2023-04-12T23:00:17.069Z,99664.20
2023-04-12T23:02:46.778Z,99668.80
2023-04-12T23:05:16.586Z,99670.80
2023-04-12T23:07:45.177Z,99672.90
2023-04-12T23:10:13.404Z,99672.45
2023-04-12T23:12:41.673Z,99671.42
2023-04-12T23:15:10.560Z,99663.35
2023-04-12T23:17:38.640Z,99662.33
2023-04-12T23:20:14.979Z,99660.34
2023-04-12T23:22:57.883Z,99657.53
2023-04-12T23:25:42.091Z,99660.88
2023-04-12T23:28:14.344Z,99664.88
2023-04-12T23:30:50.443Z,99660.54
2023-04-12T23:33:20.661Z,99665.86
2023-04-12T23:35:58.662Z,99665.82
2023-04-12T23:38:32.421Z,99671.55
2023-04-12T23:41:04.444Z,99668.96
2023-04-12T23:43:37.391Z,99666.73
2023-04-12T23:46:06.874Z,99669.73
2023-04-12T23:48:35.946Z,99671.17
2023-04-12T23:51:04.739Z,99670.70
2023-04-12T23:53:33.115Z,99674.23
2023-04-12T23:56:02.006Z,99677.29
2023-04-12T23:58:30.698Z,99681.41
